WetterOnline ( https://www.wetteronline.de )

Wetter aktuell Ruzova

Aktuelles Wetter: Usti Nad Labem (378m)

6-stündlich | Neueste Meldungen
Ortszeit Temperatur Wetter
Di, 20.10. 20:00 4.5° C wolkig
Di, 20.10. 14:00 5.8° C bedeckt
Di, 20.10. 8:00 4.2° C bedeckt
Di, 20.10. 2:00 5.4° C -
Mo, 19.10. 20:00 7.8° C bedeckt
Mo, 19.10. 14:00 9.0° C bewölkt
Mo, 19.10. 8:00 5.8° C bewölkt
Mo, 19.10. 2:00 6.5° C bewölkt
Ortszeit Temperatur Wetter
Mi, 21.10. 1:00 6.3° C bedeckt
Mi, 21.10. 0:00 6.0° C bedeckt
Di, 20.10. 23:00 5.3° C bewölkt
Di, 20.10. 22:00 5.6° C wolkig
Di, 20.10. 21:00 4.5° C wolkig
Di, 20.10. 20:00 4.5° C wolkig
Ortszeit Relative Feuchte Sichtweite
Di, 20.10. 20:00 94% 11 km
Di, 20.10. 14:00 89% 11 km
Di, 20.10. 8:00 92% 8 km
Di, 20.10. 2:00 86% 9 km
Mo, 19.10. 20:00 75% 35 km
Mo, 19.10. 14:00 75% 28 km
Mo, 19.10. 8:00 91% 20 km
Mo, 19.10. 2:00 82% 20 km
Ortszeit Relative Feuchte Sichtweite
Mi, 21.10. 1:00 91% 6 km
Mi, 21.10. 0:00 93% 6 km
Di, 20.10. 23:00 95% 3.5 km
Di, 20.10. 22:00 93% 12 km
Di, 20.10. 21:00 95% 12 km
Di, 20.10. 20:00 94% 11 km
Ortszeit Niederschlagsmenge Niederschlagsart
Di, 20.10. 20:00 0.0 l/m2 in 12 Std. -
Di, 20.10. 14:00 0.0 l/m2 in 6 Std. -
Di, 20.10. 8:00 0.0 l/m2 in 12 Std. -
Di, 20.10. 2:00 0.0 l/m2 in 6 Std. -
Mo, 19.10. 20:00 0.1 l/m2 in 12 Std. -
Mo, 19.10. 14:00 0.1 l/m2 in 6 Std. Schauer
Mo, 19.10. 8:00 0.6 l/m2 in 12 Std. Regen
Mo, 19.10. 2:00 0.1 l/m2 in 6 Std. Regenschauer
Ortszeit Niederschlagsmenge Niederschlagsart
Mi, 21.10. 1:00 0.0 l/m2 in 1 Std. -
Mi, 21.10. 0:00 0.0 l/m2 in 1 Std. -
Di, 20.10. 23:00 0.0 l/m2 in 1 Std. -
Di, 20.10. 22:00 0.0 l/m2 in 1 Std. -
Di, 20.10. 21:00 0.0 l/m2 in 1 Std. -
Di, 20.10. 20:00 0.0 l/m2 in 1 Std. -
Ortszeit Stärke Spitze Richtung
km/h Bft. km/h Grad Sektor
Di, 20.10. 20:00 4 1 - 220° SW
Di, 20.10. 14:00 11 2 - 240° SW
Di, 20.10. 8:00 11 2 - 200° S
Di, 20.10. 2:00 7 2 - 110° O
Mo, 19.10. 20:00 7 2 - 140° SO
Mo, 19.10. 14:00 7 2 - 230° SW
Mo, 19.10. 8:00 7 2 - 210° SW
Mo, 19.10. 2:00 7 2 - 250° W
Ortszeit Stärke Spitze Richtung
km/h Bft. km/h Grad Sektor
Mi, 21.10. 1:00 4 1 - 60° NO
Mi, 21.10. 0:00 4 1 - - -
Di, 20.10. 23:00 4 1 - uml. uml.
Di, 20.10. 22:00 7 2 - 130° SO
Di, 20.10. 21:00 4 1 - 150° SO
Di, 20.10. 20:00 4 1 - 220° SW
Ortszeit Untergrenze Bedeckung Gattung
total tief tief mittel hoch
Di, 20.10. 20:00 6300 m 8/8 0/8 - - Cs
Di, 20.10. 14:00 210 m 8/8 8/8 St - -
Di, 20.10. 8:00 210 m 8/8 8/8 St - -
Di, 20.10. 2:00 - - - - - -
Mo, 19.10. 20:00 1800 m 8/8 8/8 Sc - -
Mo, 19.10. 14:00 690 m 7/8 7/8 Cu - -
Mo, 19.10. 8:00 720 m 7/8 4/8 Cu As -
Mo, 19.10. 2:00 720 m - 7/8 - - -
Ortszeit Bedeckungsgrad in Achtel und Wolkenuntergrenze
Mi, 21.10. 1:00 8(3600m)
Mi, 21.10. 0:00 8(4500m)
Di, 20.10. 23:00 5(4500m) 7(6000m)
Di, 20.10. 22:00 8(5400m)
Di, 20.10. 21:00 2(6000m) 8(7500m)
Di, 20.10. 20:00 8(6300m)
Ortszeit Luftdruck NN (hPa) Tendenz (hPa in 3 Std.)
Di, 20.10. 20:00 1019 - 0,1
Di, 20.10. 14:00 1020 - 0,3
Di, 20.10. 8:00 1021 - 0,8
Di, 20.10. 2:00 1023 - 0,5
Mo, 19.10. 20:00 1024 + 0,7
Mo, 19.10. 14:00 1024 - 0,2
Mo, 19.10. 8:00 1024 + 0,8
Mo, 19.10. 2:00 1023 + 0,6
Ortszeit Luftdruck NN (hPa) Tendenz (hPa in 3 Std.)
Mi, 21.10. 1:00 1017 - 0,7
Mi, 21.10. 0:00 1018 + 0,2
Di, 20.10. 23:00 1019 + 0,2
Di, 20.10. 22:00 1018 + 0,1
Di, 20.10. 21:00 1018 - 0,9
Di, 20.10. 20:00 1019 - 0,1
Ortszeit Schneehöhe (cm)
Di, 20.10. 20:00 -
Di, 20.10. 14:00 -
Di, 20.10. 8:00 -
Di, 20.10. 2:00 -
Mo, 19.10. 20:00 -
Mo, 19.10. 14:00 -
Mo, 19.10. 8:00 -
Mo, 19.10. 2:00 -
Ortszeit Schneehöhe (cm)
Mi, 21.10. 1:00 -
Mi, 21.10. 0:00 -
Di, 20.10. 23:00 -
Di, 20.10. 22:00 -
Di, 20.10. 21:00 -
Di, 20.10. 20:00 -
Link zu dieser Seite / Seite empfehlen

Das Wetter in ...